createdAt,value
2023-05-12T00:00:43.065Z,101713.66
2023-05-12T00:03:10.055Z,101715.15
2023-05-12T00:05:37.157Z,101712.14
2023-05-12T00:08:04.808Z,101710.73
2023-05-12T00:10:31.755Z,101712.62
2023-05-12T00:12:58.697Z,101716.48
2023-05-12T00:15:25.604Z,101712.83
2023-05-12T00:17:52.693Z,101706.35
2023-05-12T00:20:20.066Z,101704.94
2023-05-12T00:22:47.270Z,101705.63
2023-05-12T00:25:14.344Z,101705.88
2023-05-12T00:27:41.396Z,101703.86
2023-05-12T00:30:09.369Z,101704.67
2023-05-12T00:32:36.547Z,101701.61
2023-05-12T00:35:03.661Z,101703.34
2023-05-12T00:37:30.816Z,101703.72
2023-05-12T00:39:57.749Z,101705.92
2023-05-12T00:42:24.696Z,101707.09
2023-05-12T00:44:51.563Z,101707.63
2023-05-12T00:47:20.325Z,101704.55
2023-05-12T00:49:47.479Z,101707.33
2023-05-12T00:52:14.424Z,101703.67
2023-05-12T00:54:41.470Z,101702.14
2023-05-12T00:57:08.626Z,101704.77
2023-05-12T00:59:36.191Z,101702.79
2023-05-12T01:02:03.509Z,101702.43
2023-05-12T01:04:30.580Z,101697.35
2023-05-12T01:07:10.434Z,101697.69
2023-05-12T01:09:38.699Z,101690.19
2023-05-12T01:12:06.088Z,101690.55
2023-05-12T01:14:34.950Z,101692.04
2023-05-12T01:17:03.798Z,101689.80
2023-05-12T01:19:51.472Z,101690.71
2023-05-12T01:22:18.930Z,101693.59
2023-05-12T01:24:57.541Z,101690.10
2023-05-12T01:27:26.430Z,101695.16
2023-05-12T01:29:57.016Z,101694.13
2023-05-12T01:32:24.281Z,101691.70
2023-05-12T01:34:52.277Z,101692.36
2023-05-12T01:37:20.760Z,101693.30
2023-05-12T01:39:48.111Z,101694.27
2023-05-12T01:42:19.050Z,101690.75
2023-05-12T01:44:46.332Z,101691.04
2023-05-12T01:47:16.014Z,101695.00
2023-05-12T01:49:49.034Z,101694.03
2023-05-12T01:52:16.553Z,101696.93
2023-05-12T01:54:44.107Z,101695.47
2023-05-12T01:57:12.079Z,101692.55
2023-05-12T01:59:40.049Z,101692.26
2023-05-12T02:02:07.408Z,101691.79
2023-05-12T02:04:34.774Z,101692.00
2023-05-12T02:07:02.213Z,101687.70
2023-05-12T02:09:29.565Z,101687.08
2023-05-12T02:11:59.954Z,101686.23
2023-05-12T02:14:27.046Z,101684.70
2023-05-12T02:16:55.621Z,101684.77
2023-05-12T02:19:23.590Z,101690.45
2023-05-12T02:21:50.665Z,101688.56
2023-05-12T02:24:17.683Z,101686.52
2023-05-12T02:26:45.111Z,101691.16
2023-05-12T02:29:13.446Z,101694.98
2023-05-12T02:31:40.611Z,101688.82
2023-05-12T02:34:16.213Z,101694.83
2023-05-12T02:36:43.368Z,101694.55
2023-05-12T02:39:10.817Z,101689.88
2023-05-12T02:41:37.980Z,101688.89
2023-05-12T02:44:05.320Z,101691.85
2023-05-12T02:46:32.482Z,101691.33
2023-05-12T02:48:59.625Z,101689.98
2023-05-12T02:51:26.566Z,101692.23
2023-05-12T02:53:53.627Z,101689.63
2023-05-12T02:56:21.116Z,101683.27
2023-05-12T02:58:48.631Z,101684.95
2023-05-12T03:01:15.725Z,101684.77
2023-05-12T03:03:42.912Z,101685.33
2023-05-12T03:06:10.290Z,101689.42
2023-05-12T03:08:37.248Z,101688.61
2023-05-12T03:11:04.274Z,101684.84
2023-05-12T03:13:31.225Z,101679.81
2023-05-12T03:16:01.780Z,101678.89
2023-05-12T03:18:29.613Z,101683.73
2023-05-12T03:20:56.984Z,101680.84
2023-05-12T03:23:24.732Z,101680.00
2023-05-12T03:25:51.879Z,101672.94
2023-05-12T03:28:18.827Z,101677.01
2023-05-12T03:30:45.767Z,101682.84
2023-05-12T03:33:12.713Z,101682.14
2023-05-12T03:35:39.637Z,101684.86
2023-05-12T03:38:06.905Z,101687.10
2023-05-12T03:40:33.959Z,101682.47
2023-05-12T03:43:01.122Z,101687.10
2023-05-12T03:45:28.252Z,101687.88
2023-05-12T03:47:55.433Z,101689.91
2023-05-12T03:50:22.633Z,101688.90
2023-05-12T03:52:49.697Z,101686.16
2023-05-12T03:55:16.647Z,101683.94
2023-05-12T03:57:44.200Z,101680.29
2023-05-12T04:00:12.183Z,101682.45
2023-05-12T04:02:46.734Z,101688.74
2023-05-12T04:05:14.271Z,101690.31
2023-05-12T04:07:42.029Z,101699.63
2023-05-12T04:10:09.382Z,101709.96
2023-05-12T04:12:36.527Z,101714.61
2023-05-12T04:15:05.124Z,101721.63
2023-05-12T04:17:32.162Z,101735.52
2023-05-12T04:19:59.093Z,101753.21
2023-05-12T04:22:26.243Z,101778.67
2023-05-12T04:24:53.701Z,101811.61
2023-05-12T04:27:20.751Z,101851.40
2023-05-12T04:29:48.410Z,101903.27
2023-05-12T04:32:15.914Z,101982.27
2023-05-12T04:34:44.150Z,102035.89
2023-05-12T04:39:10.607Z,101836.46
2023-05-12T04:41:37.733Z,101517.36
2023-05-12T04:44:05.303Z,101260.13
2023-05-12T04:46:33.283Z,101222.02
2023-05-12T04:49:00.823Z,101303.63
2023-05-12T04:51:27.767Z,101349.70
2023-05-12T04:53:54.717Z,101432.45
2023-05-12T04:56:22.478Z,101498.23
2023-05-12T04:58:49.738Z,101503.94
2023-05-12T05:01:17.005Z,101520.59
2023-05-12T05:03:44.333Z,101561.00
2023-05-12T05:06:11.997Z,101560.29
2023-05-12T05:08:39.156Z,101555.80
2023-05-12T05:11:06.396Z,101547.42
2023-05-12T05:13:33.443Z,101558.34
2023-05-12T05:16:00.557Z,101537.35
2023-05-12T05:18:29.257Z,101496.54
2023-05-12T05:20:58.935Z,101571.29
2023-05-12T05:23:26.759Z,101485.85
2023-05-12T05:25:54.328Z,101481.08
2023-05-12T05:28:21.259Z,101459.80
2023-05-12T05:30:48.297Z,101459.38
2023-05-12T05:33:15.353Z,101398.55
2023-05-12T05:35:42.691Z,101302.87
2023-05-12T05:38:10.690Z,101339.02
2023-05-12T05:40:49.309Z,101402.91
2023-05-12T05:43:19.814Z,101405.05
2023-05-12T05:45:49.526Z,101298.61
2023-05-12T05:48:16.474Z,101293.70
2023-05-12T05:50:43.927Z,101355.38
2023-05-12T05:53:10.992Z,101360.67
2023-05-12T05:55:38.021Z,101334.56
2023-05-12T05:58:05.713Z,101394.79
2023-05-12T06:00:32.936Z,101366.20
2023-05-12T06:03:00.099Z,101256.63
2023-05-12T06:05:27.335Z,101265.39
2023-05-12T06:07:54.275Z,101269.01
2023-05-12T06:10:21.405Z,101275.23
2023-05-12T06:12:50.587Z,101320.13
2023-05-12T06:15:18.317Z,101389.21
2023-05-12T06:17:45.783Z,101372.03
2023-05-12T06:20:13.739Z,101345.02
2023-05-12T06:22:42.544Z,101278.60
2023-05-12T06:25:10.326Z,101271.66
2023-05-12T06:27:38.341Z,101304.47
2023-05-12T06:30:07.344Z,101404.42
2023-05-12T06:32:34.333Z,101443.59
2023-05-12T06:35:01.489Z,101295.52
2023-05-12T06:37:28.468Z,101371.09
2023-05-12T06:39:55.532Z,101355.51
2023-05-12T06:42:23.890Z,101292.75
2023-05-12T06:44:52.068Z,101283.83
2023-05-12T06:47:20.857Z,101274.11
2023-05-12T06:49:50.255Z,101209.95
2023-05-12T06:52:17.335Z,101182.71
2023-05-12T06:54:44.771Z,101159.15
2023-05-12T06:57:12.319Z,101158.13
2023-05-12T06:59:39.363Z,101130.59
2023-05-12T07:02:06.609Z,101015.27
2023-05-12T07:04:33.568Z,100946.92
2023-05-12T07:07:00.508Z,100949.45
2023-05-12T07:09:27.735Z,100757.70
2023-05-12T07:11:55.053Z,100708.82
2023-05-12T07:14:22.052Z,100736.75
2023-05-12T07:16:48.991Z,100543.41
2023-05-12T07:19:15.948Z,100510.52
2023-05-12T07:21:43.403Z,100477.61
2023-05-12T07:24:10.442Z,100478.73
2023-05-12T07:26:37.727Z,100568.69
2023-05-12T07:29:05.568Z,100324.64
2023-05-12T07:31:33.904Z,100343.47
2023-05-12T07:34:01.196Z,100431.54
2023-05-12T07:36:28.544Z,100352.54
2023-05-12T07:38:55.496Z,100416.86
2023-05-12T07:41:22.560Z,100388.23
2023-05-12T07:43:49.478Z,100278.27
2023-05-12T07:46:16.432Z,100258.14
2023-05-12T07:48:43.318Z,100273.33
2023-05-12T07:51:10.178Z,100297.67
2023-05-12T07:53:37.154Z,100147.67
2023-05-12T07:56:04.201Z,99858.17
2023-05-12T07:58:31.252Z,99663.77
2023-05-12T08:01:00.398Z,99654.95
2023-05-12T08:03:27.647Z,99647.95
2023-05-12T08:05:54.661Z,99656.59
2023-05-12T08:08:21.896Z,99829.24
2023-05-12T08:10:48.954Z,99875.05
2023-05-12T08:13:15.954Z,100015.89
2023-05-12T08:15:43.032Z,100047.10
2023-05-12T08:18:10.218Z,99895.86
2023-05-12T08:20:37.329Z,99867.36
2023-05-12T08:23:04.291Z,99713.38
2023-05-12T08:25:31.525Z,99730.03
2023-05-12T08:27:59.806Z,99787.96
2023-05-12T08:30:27.240Z,99841.41
2023-05-12T08:32:57.706Z,99919.70
2023-05-12T08:35:25.204Z,99829.14
2023-05-12T08:37:53.339Z,99762.89
2023-05-12T08:40:24.358Z,99754.05
2023-05-12T08:43:14.073Z,99811.64
2023-05-12T08:45:41.077Z,99938.20
2023-05-12T08:48:10.354Z,100060.16
2023-05-12T08:50:38.381Z,100114.98
2023-05-12T08:53:05.709Z,100209.41
2023-05-12T08:55:34.221Z,100208.42
2023-05-12T08:58:03.074Z,100375.59
2023-05-12T09:00:31.394Z,100430.94
2023-05-12T09:02:59.684Z,100449.85
2023-05-12T09:05:27.488Z,100367.75
2023-05-12T09:07:55.557Z,100435.27
2023-05-12T09:10:34.271Z,100352.79
2023-05-12T09:13:46.228Z,100227.66
2023-05-12T09:16:13.483Z,100062.14
2023-05-12T09:18:54.955Z,99988.75
2023-05-12T09:21:22.683Z,99946.63
2023-05-12T09:24:06.306Z,99979.11
2023-05-12T09:26:44.643Z,99789.73
2023-05-12T09:29:15.754Z,99838.54
2023-05-12T09:31:51.973Z,99808.48
2023-05-12T09:34:19.387Z,99835.16
2023-05-12T09:36:55.850Z,99884.19
2023-05-12T09:39:22.901Z,99785.80
2023-05-12T09:41:49.950Z,99931.48
2023-05-12T09:44:17.196Z,100053.96
2023-05-12T09:46:44.981Z,100064.99
2023-05-12T09:49:12.819Z,100124.45
2023-05-12T09:51:41.070Z,99979.20
2023-05-12T09:54:08.154Z,100003.52
2023-05-12T09:56:37.701Z,99984.33
2023-05-12T09:59:05.626Z,99871.64
2023-05-12T10:01:32.554Z,99914.31
2023-05-12T10:03:59.451Z,100022.89
2023-05-12T10:06:30.857Z,99937.64
2023-05-12T10:09:20.551Z,99896.38
2023-05-12T10:11:47.784Z,99869.20
2023-05-12T10:14:14.830Z,99901.27
2023-05-12T10:16:41.921Z,99858.33
2023-05-12T10:19:09.274Z,99895.34
2023-05-12T10:21:36.891Z,99955.53
2023-05-12T10:24:04.550Z,100021.70
2023-05-12T10:26:32.724Z,100129.12
2023-05-12T10:28:59.679Z,100224.52
2023-05-12T10:31:28.165Z,100202.64
2023-05-12T10:33:59.094Z,100138.58
2023-05-12T10:36:26.336Z,100120.94
2023-05-12T10:38:53.603Z,100105.30
2023-05-12T10:41:31.229Z,100065.98
2023-05-12T10:43:58.494Z,100071.74
2023-05-12T10:46:26.768Z,100095.69
2023-05-12T10:48:58.791Z,100050.10
2023-05-12T10:51:31.102Z,99916.41
2023-05-12T10:54:04.141Z,99864.35
2023-05-12T10:56:42.252Z,99857.79
2023-05-12T10:59:24.467Z,99908.45
2023-05-12T11:02:03.264Z,99851.17
2023-05-12T11:04:49.434Z,99829.52
2023-05-12T11:07:21.835Z,99864.04
2023-05-12T11:09:58.613Z,99853.48
2023-05-12T11:12:28.738Z,99926.59
2023-05-12T11:14:56.194Z,99978.11
2023-05-12T11:17:23.303Z,100058.34
2023-05-12T11:19:50.708Z,100168.50
2023-05-12T11:22:20.063Z,100135.94
2023-05-12T11:24:48.479Z,100178.98
2023-05-12T11:27:16.857Z,100213.38
2023-05-12T11:29:45.163Z,100193.63
2023-05-12T11:32:12.687Z,100151.08
2023-05-12T11:34:39.826Z,100106.29
2023-05-12T11:37:06.873Z,100010.79
2023-05-12T11:39:34.137Z,99944.98
2023-05-12T11:42:12.987Z,99992.13
2023-05-12T11:44:48.095Z,99923.59
2023-05-12T11:47:16.870Z,99920.96
2023-05-12T11:49:49.455Z,99901.76
2023-05-12T11:52:17.236Z,99738.15
2023-05-12T11:55:00.990Z,99752.02
2023-05-12T11:57:33.029Z,99931.54
2023-05-12T12:00:10.004Z,100001.91
2023-05-12T12:02:38.917Z,99965.81
2023-05-12T12:05:16.724Z,99872.76
2023-05-12T12:07:43.732Z,99873.33
2023-05-12T12:10:20.198Z,99919.20
2023-05-12T12:12:47.351Z,99934.98
2023-05-12T12:15:14.293Z,99771.57
2023-05-12T12:17:41.299Z,99685.76
2023-05-12T12:20:10.711Z,99654.55
2023-05-12T12:22:37.807Z,99604.05
2023-05-12T12:25:06.275Z,99603.52
2023-05-12T12:27:33.220Z,99619.84
2023-05-12T12:30:00.192Z,99738.52
2023-05-12T12:32:27.368Z,99832.86
2023-05-12T12:34:54.485Z,99824.23
2023-05-12T12:37:21.504Z,99893.37
2023-05-12T12:39:48.858Z,99977.38
2023-05-12T12:42:15.820Z,100075.66
2023-05-12T12:44:43.984Z,100026.73
2023-05-12T12:47:11.047Z,100020.27
2023-05-12T12:49:37.962Z,99992.36
2023-05-12T12:52:05.759Z,99954.18
2023-05-12T12:54:33.000Z,99928.55
2023-05-12T12:56:59.926Z,99837.51
2023-05-12T12:59:27.267Z,99862.51
2023-05-12T13:01:54.239Z,99821.51
2023-05-12T13:04:23.194Z,99747.92
2023-05-12T13:06:50.367Z,99744.93
2023-05-12T13:09:20.000Z,99682.23
2023-05-12T13:11:47.964Z,99635.64
2023-05-12T13:14:14.889Z,99584.18
2023-05-12T13:16:42.465Z,99491.96
2023-05-12T13:19:09.793Z,99454.73
2023-05-12T13:21:37.975Z,99523.18
2023-05-12T13:24:05.032Z,99666.77
2023-05-12T13:26:31.956Z,99617.70
2023-05-12T13:28:58.908Z,99568.99
2023-05-12T13:31:26.231Z,99461.10
2023-05-12T13:33:53.302Z,99507.73
2023-05-12T13:36:20.321Z,99543.62
2023-05-12T13:38:47.305Z,99597.80
2023-05-12T13:41:14.336Z,99626.20
2023-05-12T13:43:41.258Z,99671.80
2023-05-12T13:46:09.654Z,99714.45
2023-05-12T13:48:36.709Z,99804.25
2023-05-12T13:51:03.752Z,99921.77
2023-05-12T13:53:31.009Z,99989.80
2023-05-12T13:55:57.953Z,99986.96
2023-05-12T13:58:24.903Z,100024.78
2023-05-12T14:00:51.793Z,100091.91
2023-05-12T14:03:18.778Z,100191.44
2023-05-12T14:05:46.032Z,100235.59
2023-05-12T14:08:12.977Z,100269.31
2023-05-12T14:10:39.933Z,100240.94
2023-05-12T14:13:08.482Z,100264.33
2023-05-12T14:15:47.945Z,100272.50
2023-05-12T14:18:16.235Z,100213.41
2023-05-12T14:20:43.412Z,100164.35
2023-05-12T14:23:10.432Z,100042.11
2023-05-12T14:25:37.498Z,99969.70
2023-05-12T14:28:04.543Z,99842.00
2023-05-12T14:30:31.713Z,99792.64
2023-05-12T14:32:58.748Z,99805.72
2023-05-12T14:35:27.813Z,99684.27
2023-05-12T14:37:55.703Z,99680.20
2023-05-12T14:40:23.435Z,99677.90
2023-05-12T14:42:50.435Z,99714.41
2023-05-12T14:45:18.197Z,99681.73
2023-05-12T14:47:45.392Z,99679.95
2023-05-12T14:50:13.718Z,99736.83
2023-05-12T14:52:40.817Z,99615.13
2023-05-12T14:55:12.269Z,99605.29
2023-05-12T14:57:42.379Z,99621.65
2023-05-12T15:00:13.855Z,99605.69
2023-05-12T15:02:42.224Z,99624.81
2023-05-12T15:05:10.444Z,99628.81
2023-05-12T15:07:37.842Z,99628.56
2023-05-12T15:10:05.929Z,99590.59
2023-05-12T15:12:33.572Z,99664.56
2023-05-12T15:15:05.429Z,99712.48
2023-05-12T15:17:32.733Z,99816.80
2023-05-12T15:19:59.627Z,99830.77
2023-05-12T15:22:31.384Z,99832.02
2023-05-12T15:24:59.144Z,99844.41
2023-05-12T15:27:26.491Z,99875.95
2023-05-12T15:29:54.065Z,99893.23
2023-05-12T15:32:21.001Z,99884.41
2023-05-12T15:34:48.052Z,99869.86
2023-05-12T15:37:15.402Z,99844.89
2023-05-12T15:39:42.760Z,99831.88
2023-05-12T15:42:10.728Z,99859.92
2023-05-12T15:44:39.417Z,99877.33
2023-05-12T15:47:06.827Z,99932.76
2023-05-12T15:49:33.813Z,99935.29
2023-05-12T15:52:00.971Z,99954.69
2023-05-12T15:54:28.417Z,99969.25
2023-05-12T15:56:55.327Z,100021.52
2023-05-12T15:59:22.307Z,99969.69
2023-05-12T16:01:49.229Z,99982.71
2023-05-12T16:04:16.594Z,100003.45
2023-05-12T16:06:43.779Z,100041.59
2023-05-12T16:09:11.312Z,100082.70
2023-05-12T16:11:38.561Z,100131.80
2023-05-12T16:14:05.717Z,100182.92
2023-05-12T16:16:32.732Z,100205.29
2023-05-12T16:18:59.773Z,100250.38
2023-05-12T16:21:26.854Z,100268.70
2023-05-12T16:23:53.796Z,100302.73
2023-05-12T16:26:20.854Z,100287.90
2023-05-12T16:28:47.890Z,100233.06
2023-05-12T16:31:18.429Z,100261.23
2023-05-12T16:33:45.977Z,100295.86
2023-05-12T16:36:13.343Z,100322.29
2023-05-12T16:38:40.680Z,100345.86
2023-05-12T16:41:07.758Z,100466.45
2023-05-12T16:43:34.906Z,100542.23
2023-05-12T16:46:02.696Z,100583.33
2023-05-12T16:48:34.466Z,100627.93
2023-05-12T16:51:09.224Z,100711.74
2023-05-12T16:53:36.171Z,100774.53
2023-05-12T16:57:21.151Z,100825.29
2023-05-12T16:59:51.163Z,100898.15
2023-05-12T17:02:18.776Z,101076.52
2023-05-12T17:04:46.770Z,101237.21
2023-05-12T17:07:13.731Z,101323.16
2023-05-12T17:09:40.782Z,101331.05
2023-05-12T17:12:08.590Z,101393.63
2023-05-12T17:14:35.714Z,101536.61
2023-05-12T17:17:03.157Z,101586.77
2023-05-12T17:19:30.080Z,101690.33
2023-05-12T17:21:57.145Z,101831.21
2023-05-12T17:24:24.187Z,101854.30
2023-05-12T17:26:51.232Z,101900.23
2023-05-12T17:29:18.278Z,102002.20
2023-05-12T17:31:45.163Z,102067.49
2023-05-12T17:34:12.121Z,102137.92
2023-05-12T17:36:39.116Z,102209.48
2023-05-12T17:39:06.265Z,102296.09
2023-05-12T17:41:33.222Z,102368.73
2023-05-12T17:44:00.130Z,102400.08
2023-05-12T17:46:27.739Z,102382.55
2023-05-12T17:48:54.739Z,102367.80
2023-05-12T17:51:22.028Z,102349.94
2023-05-12T17:53:48.965Z,102349.05
2023-05-12T17:56:16.111Z,102326.17
2023-05-12T17:58:43.050Z,102284.27
2023-05-12T18:01:10.098Z,102278.20
2023-05-12T18:03:38.224Z,102240.61
2023-05-12T18:06:05.826Z,102205.27
2023-05-12T18:08:32.986Z,102165.95
2023-05-12T18:11:00.332Z,102143.27
2023-05-12T18:13:27.515Z,102136.34
2023-05-12T18:15:54.630Z,102156.77
2023-05-12T18:18:21.905Z,102187.02
2023-05-12T18:20:49.149Z,102172.25
2023-05-12T18:23:16.177Z,102107.66
2023-05-12T18:25:43.326Z,102016.31
2023-05-12T18:28:10.222Z,101872.63
2023-05-12T18:30:37.277Z,101684.02
2023-05-12T18:33:04.985Z,101545.45
2023-05-12T18:35:32.110Z,101502.81
2023-05-12T18:37:59.507Z,101458.27
2023-05-12T18:40:26.545Z,101436.38
2023-05-12T18:42:53.570Z,101421.05
2023-05-12T18:45:20.831Z,101405.58
2023-05-12T18:47:48.047Z,101386.45
2023-05-12T18:50:15.125Z,101364.77
2023-05-12T18:52:42.984Z,101338.05
2023-05-12T18:55:11.064Z,101314.27
2023-05-12T18:57:38.551Z,101292.04
2023-05-12T19:00:06.704Z,101261.88
2023-05-12T19:02:34.763Z,101229.10
2023-05-12T19:05:02.377Z,101194.41
2023-05-12T19:07:29.373Z,101176.31
2023-05-12T19:09:56.514Z,101173.60
2023-05-12T19:12:23.489Z,101176.91
2023-05-12T19:14:50.400Z,101184.02
2023-05-12T19:17:17.930Z,101192.51
2023-05-12T19:19:45.110Z,101196.34
2023-05-12T19:22:12.362Z,101209.46
2023-05-12T19:24:39.220Z,101221.55
2023-05-12T19:27:06.464Z,101234.14
2023-05-12T19:29:33.406Z,101251.20
2023-05-12T19:32:00.532Z,101273.94
2023-05-12T19:34:29.644Z,101296.32
2023-05-12T19:36:58.441Z,101320.59
2023-05-12T19:39:25.377Z,101352.77
2023-05-12T19:41:52.282Z,101390.28
2023-05-12T19:44:19.264Z,101430.89
2023-05-12T19:46:47.234Z,101472.54
2023-05-12T19:49:14.997Z,101511.95
2023-05-12T19:51:41.942Z,101536.88
2023-05-12T19:54:10.133Z,101559.40
2023-05-12T19:56:37.568Z,101575.00
2023-05-12T19:59:04.512Z,101595.25
2023-05-12T20:01:31.682Z,101609.79
2023-05-12T20:03:58.708Z,101619.14
2023-05-12T20:06:25.767Z,101626.98
2023-05-12T20:08:52.918Z,101645.98
2023-05-12T20:11:20.063Z,101669.29
2023-05-12T20:13:46.999Z,101690.92
2023-05-12T20:16:14.048Z,101718.73
2023-05-12T20:18:41.318Z,101736.37
2023-05-12T20:21:08.349Z,101754.02
2023-05-12T20:23:35.299Z,101768.20
2023-05-12T20:26:02.234Z,101786.88
2023-05-12T20:28:29.378Z,101800.61
2023-05-12T20:30:56.602Z,101816.56
2023-05-12T20:33:23.783Z,101830.79
2023-05-12T20:35:51.047Z,101842.31
2023-05-12T20:38:17.984Z,101852.58
2023-05-12T20:40:45.433Z,101856.15
2023-05-12T20:43:14.605Z,101865.25
2023-05-12T20:45:41.828Z,101870.59
2023-05-12T20:48:09.425Z,101877.77
2023-05-12T20:50:36.591Z,101879.48
2023-05-12T20:53:04.705Z,101881.20
2023-05-12T20:55:34.995Z,101882.06
2023-05-12T20:58:01.889Z,101883.30
2023-05-12T21:00:28.893Z,101886.36
2023-05-12T21:02:56.304Z,101886.66
2023-05-12T21:05:23.453Z,101887.31
2023-05-12T21:07:50.723Z,101890.72
2023-05-12T21:10:19.364Z,101892.59
2023-05-12T21:12:46.365Z,101892.73
2023-05-12T21:15:13.396Z,101894.58
2023-05-12T21:17:41.112Z,101889.89
2023-05-12T21:20:10.128Z,101888.48
2023-05-12T21:22:37.622Z,101884.83
2023-05-12T21:25:05.207Z,101884.09
2023-05-12T21:27:32.164Z,101885.05
2023-05-12T21:29:59.164Z,101890.88
2023-05-12T21:32:26.681Z,101888.80
2023-05-12T21:34:53.785Z,101887.21
2023-05-12T21:37:20.682Z,101893.08
2023-05-12T21:39:47.673Z,101888.48
2023-05-12T21:42:14.922Z,101890.15
2023-05-12T21:44:41.955Z,101891.27
2023-05-12T21:47:09.002Z,101884.91
2023-05-12T21:49:36.050Z,101879.27
2023-05-12T21:52:03.410Z,101875.48
2023-05-12T21:54:33.490Z,101869.30
2023-05-12T21:57:00.881Z,101867.60
2023-05-12T21:59:29.278Z,101861.47
2023-05-12T22:01:56.337Z,101858.06
2023-05-12T22:04:23.555Z,101850.52
2023-05-12T22:06:51.103Z,101845.69
2023-05-12T22:09:18.571Z,101840.55
2023-05-12T22:11:45.404Z,101839.35
2023-05-12T22:14:12.357Z,101836.27
2023-05-12T22:16:42.263Z,101833.00
2023-05-12T22:19:10.381Z,101830.23
2023-05-12T22:21:37.492Z,101824.75
2023-05-12T22:24:04.640Z,101823.87
2023-05-12T22:26:31.590Z,101819.22
2023-05-12T22:28:58.444Z,101810.48
2023-05-12T22:31:25.531Z,101805.38
2023-05-12T22:33:52.641Z,101798.71
2023-05-12T22:36:19.544Z,101796.52
2023-05-12T22:38:46.410Z,101792.73
2023-05-12T22:41:13.354Z,101790.80
2023-05-12T22:43:40.605Z,101788.69
2023-05-12T22:46:09.749Z,101785.42
2023-05-12T22:48:39.444Z,101785.58
2023-05-12T22:51:06.966Z,101781.23
2023-05-12T22:53:36.264Z,101780.55
2023-05-12T22:56:03.657Z,101775.58
2023-05-12T22:58:30.677Z,101770.93
2023-05-12T23:00:57.671Z,101769.75
2023-05-12T23:03:24.697Z,101768.77
2023-05-12T23:05:51.599Z,101766.23
2023-05-12T23:08:18.441Z,101757.23
2023-05-12T23:10:45.591Z,101753.73
2023-05-12T23:13:12.535Z,101754.83
2023-05-12T23:15:39.483Z,101753.69
2023-05-12T23:18:06.593Z,101752.54
2023-05-12T23:20:34.092Z,101752.47
2023-05-12T23:23:01.032Z,101752.88
2023-05-12T23:25:29.220Z,101752.77
2023-05-12T23:27:56.152Z,101752.98
2023-05-12T23:30:23.448Z,101755.09
2023-05-12T23:32:50.567Z,101759.62
2023-05-12T23:35:17.805Z,101759.79
2023-05-12T23:37:44.679Z,101757.73
2023-05-12T23:40:12.380Z,101757.20
2023-05-12T23:42:39.351Z,101757.69
2023-05-12T23:45:07.617Z,101756.95
2023-05-12T23:47:34.601Z,101755.86
2023-05-12T23:50:02.025Z,101756.67
2023-05-12T23:52:29.079Z,101758.01
2023-05-12T23:54:56.225Z,101757.12
2023-05-12T23:57:23.270Z,101754.70
2023-05-12T23:59:50.212Z,101758.23
